createdAt,value
2022-09-23T00:01:15.666Z,101952.03
2022-09-23T00:03:45.352Z,101940.34
2022-09-23T00:06:14.395Z,101953.66
2022-09-23T00:08:41.073Z,101940.91
2022-09-23T00:11:19.493Z,101947.41
2022-09-23T00:13:48.960Z,101944.97
2022-09-23T00:16:20.597Z,101940.50
2022-09-23T00:18:47.096Z,101934.63
2022-09-23T00:21:14.616Z,101937.84
2022-09-23T00:23:42.847Z,101937.06
2022-09-23T00:26:12.054Z,101933.00
2022-09-23T00:28:38.736Z,101924.50
2022-09-23T00:31:07.173Z,101927.34
2022-09-23T00:33:33.861Z,101925.53
2022-09-23T00:36:11.037Z,101926.13
2022-09-23T00:38:38.814Z,101926.13
2022-09-23T00:41:06.307Z,101921.47
2022-09-23T00:43:45.054Z,101920.25
2022-09-23T00:46:26.298Z,101918.81
2022-09-23T00:48:59.387Z,101920.66
2022-09-23T00:51:33.359Z,101909.34
2022-09-23T00:54:02.173Z,101910.53
2022-09-23T00:56:31.982Z,101907.69
2022-09-23T00:58:59.980Z,101908.31
2022-09-23T01:01:26.800Z,101908.31
2022-09-23T01:03:54.785Z,101903.41
2022-09-23T01:06:21.480Z,101899.75
2022-09-23T01:08:48.300Z,101908.63
2022-09-23T01:11:45.371Z,101911.25
2022-09-23T01:14:40.640Z,101900.53
2022-09-23T01:17:23.169Z,101908.78
2022-09-23T01:19:49.670Z,101897.84
2022-09-23T01:22:32.291Z,101905.53
2022-09-23T01:25:26.229Z,101905.72
2022-09-23T01:28:08.278Z,101907.97
2022-09-23T01:30:51.773Z,101901.91
2022-09-23T01:33:30.330Z,101905.72
2022-09-23T01:36:26.079Z,101896.59
2022-09-23T01:39:03.361Z,101894.38
2022-09-23T01:41:32.726Z,101888.13
2022-09-23T01:44:11.454Z,101885.69
2022-09-23T01:46:48.318Z,101883.06
2022-09-23T01:49:25.333Z,101882.63
2022-09-23T01:52:03.943Z,101885.03
2022-09-23T01:54:55.146Z,101883.84
2022-09-23T01:57:36.081Z,101883.03
2022-09-23T02:00:11.791Z,101881.41
2022-09-23T02:02:49.508Z,101883.03
2022-09-23T02:05:26.758Z,101878.59
2022-09-23T02:07:59.413Z,101883.84
2022-09-23T02:10:31.011Z,101872.91
2022-09-23T02:13:05.443Z,101881.97
2022-09-23T02:15:42.105Z,101878.53
2022-09-23T02:18:14.850Z,101878.53
2022-09-23T02:20:43.213Z,101873.91
2022-09-23T02:23:17.257Z,101866.84
2022-09-23T02:26:04.714Z,101859.19
2022-09-23T02:28:43.338Z,101854.31
2022-09-23T02:31:19.989Z,101850.28
2022-09-23T02:33:53.318Z,101846.63
2022-09-23T02:36:29.289Z,101843.41
2022-09-23T02:39:02.643Z,101840.16
2022-09-23T02:41:38.776Z,101840.53
2022-09-23T02:44:12.817Z,101828.38
2022-09-23T02:46:39.812Z,101833.19
2022-09-23T02:49:12.638Z,101823.47
2022-09-23T02:51:40.417Z,101832.72
2022-09-23T02:54:10.681Z,101824.84
2022-09-23T02:56:37.471Z,101827.47
2022-09-23T02:59:04.217Z,101822.22
2022-09-23T03:01:56.459Z,101823.41
2022-09-23T03:04:35.089Z,101823.03
2022-09-23T03:07:10.024Z,101815.34
2022-09-23T03:10:04.440Z,101825.41
2022-09-23T03:12:52.918Z,101815.91
2022-09-23T03:15:35.680Z,101815.91
2022-09-23T03:18:18.131Z,101813.50
2022-09-23T03:20:50.453Z,101804.63
2022-09-23T03:23:26.408Z,101804.88
2022-09-23T03:25:58.345Z,101805.69
2022-09-23T03:28:27.015Z,101810.91
2022-09-23T03:30:56.049Z,101816.53
2022-09-23T03:33:28.850Z,101813.09
2022-09-23T03:36:24.436Z,101805.44
2022-09-23T03:38:54.462Z,101814.09
2022-09-23T03:41:34.317Z,101811.28
2022-09-23T03:44:02.310Z,101798.38
2022-09-23T03:46:30.031Z,101802.63
2022-09-23T03:49:04.272Z,101797.19
2022-09-23T03:51:30.986Z,101791.97
2022-09-23T03:53:57.553Z,101793.56
2022-09-23T03:56:24.173Z,101790.75
2022-09-23T03:58:51.120Z,101783.09
2022-09-23T04:01:17.660Z,101784.72
2022-09-23T04:03:44.119Z,101786.34
2022-09-23T04:06:10.553Z,101786.34
2022-09-23T04:08:37.050Z,101781.69
2022-09-23T04:11:04.883Z,101778.47
2022-09-23T04:13:31.998Z,101780.28
2022-09-23T04:15:58.518Z,101778.66
2022-09-23T04:18:25.251Z,101778.84
2022-09-23T04:20:51.714Z,101774.63
2022-09-23T04:23:18.172Z,101784.47
2022-09-23T04:25:49.189Z,101783.84
2022-09-23T04:28:15.933Z,101784.66
2022-09-23T04:30:43.845Z,101781.84
2022-09-23T04:33:11.342Z,101779.84
2022-09-23T04:35:40.370Z,101781.91
2022-09-23T04:38:07.209Z,101770.19
2022-09-23T04:40:34.241Z,101760.13
2022-09-23T04:43:01.143Z,101763.38
2022-09-23T04:45:27.736Z,101764.81
2022-09-23T04:47:54.498Z,101763.81
2022-09-23T04:50:21.062Z,101766.66
2022-09-23T04:52:47.479Z,101768.72
2022-09-23T04:55:13.971Z,101775.38
2022-09-23T04:57:40.584Z,101772.97
2022-09-23T05:00:07.779Z,101776.03
2022-09-23T05:02:35.662Z,101772.59
2022-09-23T05:05:02.163Z,101766.97
2022-09-23T05:07:28.667Z,101769.38
2022-09-23T05:09:55.260Z,101763.13
2022-09-23T05:12:21.933Z,101767.16
2022-09-23T05:14:48.708Z,101762.34
2022-09-23T05:17:15.568Z,101760.56
2022-09-23T05:19:42.503Z,101761.97
2022-09-23T05:22:08.948Z,101766.84
2022-09-23T05:24:35.458Z,101760.41
2022-09-23T05:27:02.092Z,101762.81
2022-09-23T05:29:29.107Z,101764.88
2022-09-23T05:31:55.649Z,101756.78
2022-09-23T05:34:23.194Z,101766.91
2022-09-23T05:36:49.705Z,101770.09
2022-09-23T05:39:16.363Z,101769.91
2022-09-23T05:41:43.488Z,101770.13
2022-09-23T05:44:10.120Z,101767.94
2022-09-23T05:46:36.687Z,101776.22
2022-09-23T05:49:05.460Z,101768.38
2022-09-23T05:51:33.521Z,101768.78
2022-09-23T05:54:03.086Z,101765.38
2022-09-23T05:56:30.567Z,101767.78
2022-09-23T05:58:58.965Z,101770.41
2022-09-23T06:01:28.847Z,101769.63
2022-09-23T06:03:57.188Z,101769.84
2022-09-23T06:06:34.446Z,101770.03
2022-09-23T06:09:01.796Z,101778.94
2022-09-23T06:11:33.046Z,101772.25
2022-09-23T06:14:03.063Z,101770.63
2022-09-23T06:16:32.409Z,101766.59
2022-09-23T06:19:04.530Z,101770.25
2022-09-23T06:21:34.266Z,101771.84
2022-09-23T06:24:01.187Z,101774.50
2022-09-23T06:26:33.899Z,101764.16
2022-09-23T06:29:03.904Z,101764.34
2022-09-23T06:31:41.324Z,101765.34
2022-09-23T06:34:13.234Z,101759.69
2022-09-23T06:36:45.573Z,101763.09
2022-09-23T06:39:23.167Z,101759.25
2022-09-23T06:41:53.833Z,101763.06
2022-09-23T06:44:22.079Z,101761.41
2022-09-23T06:46:49.070Z,101757.91
2022-09-23T06:49:18.845Z,101766.56
2022-09-23T06:51:46.499Z,101755.78
2022-09-23T06:54:13.864Z,101758.91
2022-09-23T06:56:41.448Z,101766.53
2022-09-23T06:59:11.044Z,101762.75
2022-09-23T07:01:39.402Z,101760.03
2022-09-23T07:04:07.857Z,101756.13
2022-09-23T07:06:34.614Z,101757.16
2022-09-23T07:09:01.388Z,101753.41
2022-09-23T07:11:29.350Z,101752.81
2022-09-23T07:13:56.250Z,101760.19
2022-09-23T07:16:23.503Z,101751.09
2022-09-23T07:18:50.494Z,101748.31
2022-09-23T07:21:19.477Z,101755.03
2022-09-23T07:23:48.423Z,101756.47
2022-09-23T07:26:16.418Z,101749.41
2022-09-23T07:28:43.667Z,101747.59
2022-09-23T07:31:14.189Z,101745.56
2022-09-23T07:33:44.356Z,101747.00
2022-09-23T07:36:19.652Z,101749.63
2022-09-23T07:38:47.607Z,101757.59
2022-09-23T07:41:17.933Z,101762.25
2022-09-23T07:43:46.263Z,101757.16
2022-09-23T07:46:17.017Z,101763.50
2022-09-23T07:48:46.804Z,101764.31
2022-09-23T07:51:23.884Z,101760.13
2022-09-23T07:53:52.626Z,101759.66
2022-09-23T07:56:22.896Z,101758.69
2022-09-23T07:59:00.422Z,101758.97
2022-09-23T08:01:29.526Z,101763.03
2022-09-23T08:04:01.366Z,101762.53
2022-09-23T08:06:27.982Z,101768.59
2022-09-23T08:08:58.860Z,101764.13
2022-09-23T08:11:29.209Z,101761.97
2022-09-23T08:13:56.839Z,101764.75
2022-09-23T08:16:25.612Z,101763.41
2022-09-23T08:18:52.416Z,101763.59
2022-09-23T08:21:21.549Z,101754.44
2022-09-23T08:23:49.667Z,101753.59
2022-09-23T08:26:21.731Z,101756.44
2022-09-23T08:28:51.959Z,101756.03
2022-09-23T08:31:35.395Z,101759.31
2022-09-23T08:34:09.088Z,101752.22
2022-09-23T08:36:37.251Z,101750.41
2022-09-23T08:39:13.542Z,101754.06
2022-09-23T08:42:09.148Z,101750.75
2022-09-23T08:45:00.135Z,101759.44
2022-09-23T08:47:32.397Z,101751.09
2022-09-23T08:50:20.859Z,101746.94
2022-09-23T08:52:57.505Z,101749.69
2022-09-23T08:55:40.835Z,101751.94
2022-09-23T08:58:26.755Z,101759.22
2022-09-23T09:01:13.292Z,101753.44
2022-09-23T09:04:01.346Z,101748.44
2022-09-23T09:06:53.043Z,101751.09
2022-09-23T09:09:34.097Z,101751.91
2022-09-23T09:12:21.647Z,101753.81
2022-09-23T09:15:15.877Z,101751.19
2022-09-23T09:18:13.038Z,101738.94
2022-09-23T09:20:49.004Z,101737.13
2022-09-23T09:23:15.382Z,101732.06
2022-09-23T09:25:51.957Z,101738.50
2022-09-23T09:28:39.514Z,101736.94
2022-09-23T09:31:33.011Z,101741.19
2022-09-23T09:34:34.145Z,101736.16
2022-09-23T09:37:20.886Z,101733.53
2022-09-23T09:39:47.424Z,101738.63
2022-09-23T09:42:21.484Z,101730.69
2022-09-23T09:45:02.896Z,101726.97
2022-09-23T09:47:35.307Z,101726.19
2022-09-23T09:50:14.333Z,101732.56
2022-09-23T09:52:43.268Z,101732.59
2022-09-23T09:55:12.933Z,101731.78
2022-09-23T09:57:47.721Z,101727.53
2022-09-23T10:00:26.776Z,101722.44
2022-09-23T10:02:57.251Z,101715.81
2022-09-23T10:05:34.340Z,101724.84
2022-09-23T10:08:24.996Z,101720.06
2022-09-23T10:11:17.827Z,101724.59
2022-09-23T10:14:05.002Z,101718.16
2022-09-23T10:16:35.184Z,101715.75
2022-09-23T10:19:26.374Z,101703.66
2022-09-23T10:22:07.173Z,101700.44
2022-09-23T10:24:39.516Z,101697.47
2022-09-23T10:27:15.854Z,101696.09
2022-09-23T10:29:57.740Z,101697.94
2022-09-23T10:32:27.677Z,101695.44
2022-09-23T10:35:09.266Z,101692.19
2022-09-23T10:37:38.994Z,101692.44
2022-09-23T10:40:57.917Z,101689.25
2022-09-23T10:44:05.087Z,101695.66
2022-09-23T10:46:38.859Z,101689.81
2022-09-23T10:49:33.099Z,101690.63
2022-09-23T10:52:09.308Z,101692.75
2022-09-23T10:55:05.143Z,101697.94
2022-09-23T10:57:53.590Z,101697.84
2022-09-23T11:00:40.869Z,101691.97
2022-09-23T11:03:09.314Z,101699.47
2022-09-23T11:05:48.869Z,101699.97
2022-09-23T11:08:27.724Z,101697.25
2022-09-23T11:10:56.368Z,101699.69
2022-09-23T11:13:34.735Z,101688.47
2022-09-23T11:16:14.128Z,101692.25
2022-09-23T11:19:06.022Z,101693.53
2022-09-23T11:21:48.790Z,101682.31
2022-09-23T11:24:28.133Z,101678.28
2022-09-23T11:27:06.205Z,101682.81
2022-09-23T11:29:52.058Z,101689.53
2022-09-23T11:35:36.744Z,101685.50
2022-09-23T11:38:10.261Z,101682.22
2022-09-23T11:40:43.685Z,101679.47
2022-09-23T11:43:28.587Z,101676.72
2022-09-23T11:46:29.644Z,101674.81
2022-09-23T11:49:05.300Z,101675.50
2022-09-23T11:51:59.438Z,101675.38
2022-09-23T11:54:38.551Z,101663.78
2022-09-23T11:57:09.610Z,101665.03
2022-09-23T11:59:51.749Z,101661.16
2022-09-23T12:02:30.742Z,101666.38
2022-09-23T12:05:17.348Z,101663.78
2022-09-23T12:07:54.646Z,101660.75
2022-09-23T12:10:48.391Z,101657.22
2022-09-23T12:13:27.339Z,101651.00
2022-09-23T12:16:02.453Z,101648.66
2022-09-23T12:19:14.079Z,101648.56
2022-09-23T12:22:08.051Z,101646.56
2022-09-23T12:24:45.759Z,101645.31
2022-09-23T12:27:23.966Z,101649.41
2022-09-23T12:29:56.815Z,101640.16
2022-09-23T12:32:25.081Z,101638.03
2022-09-23T12:34:53.437Z,101636.44
2022-09-23T12:37:43.253Z,101625.00
2022-09-23T12:40:22.818Z,101635.72
2022-09-23T12:42:50.237Z,101631.03
2022-09-23T12:45:32.587Z,101626.72
2022-09-23T12:48:17.980Z,101628.09
2022-09-23T12:50:54.640Z,101632.56
2022-09-23T12:53:33.525Z,101625.63
2022-09-23T12:56:13.718Z,101624.56
2022-09-23T12:58:43.277Z,101628.00
2022-09-23T13:01:17.157Z,101624.03
2022-09-23T13:04:08.054Z,101628.81
2022-09-23T13:06:56.570Z,101623.84
2022-09-23T13:09:27.072Z,101622.72
2022-09-23T13:11:59.816Z,101611.56
2022-09-23T13:14:28.584Z,101613.44
2022-09-23T13:16:58.343Z,101608.59
2022-09-23T13:19:28.089Z,101614.22
2022-09-23T13:21:54.493Z,101613.78
2022-09-23T13:24:29.996Z,101607.56
2022-09-23T13:27:05.695Z,101601.69
2022-09-23T13:29:42.303Z,101606.16
2022-09-23T13:32:14.933Z,101604.97
2022-09-23T13:34:44.311Z,101601.84
2022-09-23T13:37:22.528Z,101599.94
2022-09-23T13:39:49.938Z,101599.72
2022-09-23T13:42:28.592Z,101598.69
2022-09-23T13:44:57.539Z,101589.63
2022-09-23T13:47:27.668Z,101592.53
2022-09-23T13:49:54.441Z,101595.16
2022-09-23T13:52:30.892Z,101591.81
2022-09-23T13:54:57.526Z,101590.31
2022-09-23T13:57:33.821Z,101583.81
2022-09-23T14:00:22.230Z,101589.91
2022-09-23T14:02:48.686Z,101596.22
2022-09-23T14:05:23.818Z,101579.47
2022-09-23T14:07:55.963Z,101585.97
2022-09-23T14:10:24.723Z,101580.91
2022-09-23T14:12:52.803Z,101570.72
2022-09-23T14:15:21.079Z,101571.50
2022-09-23T14:18:03.706Z,101563.34
2022-09-23T14:20:30.104Z,101569.72
2022-09-23T14:23:05.548Z,101563.34
2022-09-23T14:25:32.965Z,101553.28
2022-09-23T14:28:00.658Z,101564.41
2022-09-23T14:30:27.378Z,101560.09
2022-09-23T14:32:53.939Z,101552.56
2022-09-23T14:35:27.432Z,101554.50
2022-09-23T14:38:14.946Z,101553.72
2022-09-23T14:41:17.348Z,101554.38
2022-09-23T14:43:49.475Z,101551.50
2022-09-23T14:46:21.255Z,101544.84
2022-09-23T14:48:54.527Z,101546.78
2022-09-23T14:51:22.825Z,101551.94
2022-09-23T14:53:49.392Z,101546.16
2022-09-23T14:56:22.499Z,101553.19
2022-09-23T14:58:53.191Z,101546.38
2022-09-23T15:01:32.493Z,101546.22
2022-09-23T15:04:08.950Z,101542.78
2022-09-23T15:06:37.912Z,101544.47
2022-09-23T15:09:05.840Z,101534.66
2022-09-23T15:11:34.701Z,101542.47
2022-09-23T15:14:19.687Z,101539.31
2022-09-23T15:16:49.729Z,101526.03
2022-09-23T15:19:19.964Z,101530.66
2022-09-23T15:21:47.889Z,101534.41
2022-09-23T15:24:42.560Z,101526.16
2022-09-23T15:27:25.523Z,101524.59
2022-09-23T15:29:52.984Z,101528.88
2022-09-23T15:32:20.112Z,101516.34
2022-09-23T15:34:48.860Z,101520.38
2022-09-23T15:37:15.329Z,101523.84
2022-09-23T15:39:41.828Z,101523.88
2022-09-23T15:42:10.171Z,101523.91
2022-09-23T15:44:37.943Z,101523.91
2022-09-23T15:47:04.736Z,101523.13
2022-09-23T15:49:36.461Z,101522.63
2022-09-23T15:52:05.002Z,101523.69
2022-09-23T15:54:34.734Z,101523.72
2022-09-23T15:57:01.326Z,101519.50
2022-09-23T15:59:29.769Z,101521.91
2022-09-23T16:01:58.689Z,101512.84
2022-09-23T16:04:26.148Z,101514.19
2022-09-23T16:06:53.130Z,101517.94
2022-09-23T16:09:19.611Z,101522.47
2022-09-23T16:11:48.376Z,101514.47
2022-09-23T16:14:16.735Z,101518.00
2022-09-23T16:16:45.280Z,101519.84
2022-09-23T16:19:12.387Z,101512.13
2022-09-23T16:21:40.898Z,101517.47
2022-09-23T16:24:18.434Z,101522.28
2022-09-23T16:26:47.126Z,101523.06
2022-09-23T16:29:14.688Z,101520.41
2022-09-23T16:31:41.246Z,101527.59
2022-09-23T16:34:08.103Z,101530.78
2022-09-23T16:36:38.261Z,101525.72
2022-09-23T16:39:07.072Z,101525.97
2022-09-23T16:41:33.817Z,101532.38
2022-09-23T16:44:02.248Z,101530.50
2022-09-23T16:46:29.480Z,101532.91
2022-09-23T16:48:57.591Z,101528.38
2022-09-23T16:51:30.050Z,101528.63
2022-09-23T16:53:58.215Z,101532.34
2022-09-23T16:56:28.925Z,101536.03
2022-09-23T16:58:57.166Z,101538.72
2022-09-23T17:01:44.376Z,101538.44
2022-09-23T17:04:11.586Z,101537.63
2022-09-23T17:06:51.744Z,101537.59
2022-09-23T17:09:20.240Z,101530.66
2022-09-23T17:11:50.536Z,101530.38
2022-09-23T17:14:17.006Z,101525.84
2022-09-23T17:16:44.018Z,101526.09
2022-09-23T17:19:12.257Z,101526.84
2022-09-23T17:21:39.183Z,101527.38
2022-09-23T17:24:06.748Z,101528.94
2022-09-23T17:26:33.926Z,101527.88
2022-09-23T17:29:00.967Z,101527.56
2022-09-23T17:31:28.087Z,101529.41
2022-09-23T17:33:54.602Z,101524.06
2022-09-23T17:36:21.975Z,101525.66
2022-09-23T17:38:49.436Z,101527.22
2022-09-23T17:41:17.248Z,101527.75
2022-09-23T17:43:45.390Z,101521.34
2022-09-23T17:46:16.269Z,101509.06
2022-09-23T17:48:43.264Z,101504.28
2022-09-23T17:51:18.817Z,101505.84
2022-09-23T17:53:47.151Z,101507.16
2022-09-23T17:56:21.142Z,101511.38
2022-09-23T17:58:49.350Z,101506.56
2022-09-23T18:01:19.142Z,101509.47
2022-09-23T18:03:46.554Z,101502.81
2022-09-23T18:06:15.990Z,101504.13
2022-09-23T18:08:44.127Z,101501.97
2022-09-23T18:11:22.173Z,101497.72
2022-09-23T18:13:51.387Z,101502.47
2022-09-23T18:16:18.348Z,101499.53
2022-09-23T18:18:50.117Z,101503.25
2022-09-23T18:21:16.636Z,101505.59
2022-09-23T18:23:43.076Z,101508.78
2022-09-23T18:26:22.746Z,101510.88
2022-09-23T18:28:50.166Z,101512.47
2022-09-23T18:31:16.810Z,101521.50
2022-09-23T18:33:43.344Z,101517.22
2022-09-23T18:36:10.080Z,101520.13
2022-09-23T18:38:36.524Z,101515.34
2022-09-23T18:41:03.367Z,101510.28
2022-09-23T18:43:40.784Z,101518.25
2022-09-23T18:46:15.784Z,101509.19
2022-09-23T18:49:01.429Z,101512.88
2022-09-23T18:51:29.562Z,101511.50
2022-09-23T18:53:59.921Z,101511.50
2022-09-23T18:56:29.603Z,101521.31
2022-09-23T18:58:56.677Z,101512.81
2022-09-23T19:01:24.217Z,101516.50
2022-09-23T19:03:57.451Z,101517.88
2022-09-23T19:06:25.060Z,101519.72
2022-09-23T19:08:53.336Z,101518.91
2022-09-23T19:11:21.029Z,101512.00
2022-09-23T19:13:52.253Z,101517.56
2022-09-23T19:16:18.775Z,101515.16
2022-09-23T19:18:48.907Z,101512.75
2022-09-23T19:21:20.396Z,101517.50
2022-09-23T19:23:53.122Z,101511.41
2022-09-23T19:26:25.816Z,101510.59
2022-09-23T19:28:55.052Z,101515.66
2022-09-23T19:31:33.441Z,101516.47
2022-09-23T19:34:11.635Z,101513.56
2022-09-23T19:36:40.840Z,101510.91
2022-09-23T19:39:12.277Z,101517.00
2022-09-23T19:41:38.731Z,101510.91
2022-09-23T19:44:07.291Z,101509.31
2022-09-23T19:46:37.770Z,101510.34
2022-09-23T19:49:06.222Z,101501.84
2022-09-23T19:51:36.956Z,101506.09
2022-09-23T19:54:04.962Z,101500.78
2022-09-23T19:56:32.470Z,101506.09
2022-09-23T19:58:59.936Z,101499.97
2022-09-23T20:01:29.328Z,101497.56
2022-09-23T20:03:56.217Z,101502.09
2022-09-23T20:06:23.213Z,101501.03
2022-09-23T20:08:50.425Z,101490.66
2022-09-23T20:11:23.662Z,101494.38
2022-09-23T20:14:00.773Z,101492.78
2022-09-23T20:16:31.821Z,101490.38
2022-09-23T20:18:59.912Z,101495.69
2022-09-23T20:21:28.223Z,101494.88
2022-09-23T20:23:54.907Z,101491.69
2022-09-23T20:26:39.823Z,101490.91
2022-09-23T20:29:06.263Z,101490.09
2022-09-23T20:31:34.633Z,101489.31
2022-09-23T20:34:05.445Z,101479.97
2022-09-23T20:36:33.179Z,101482.63
2022-09-23T20:39:02.015Z,101483.69
2022-09-23T20:41:30.173Z,101478.63
2022-09-23T20:44:01.306Z,101480.47
2022-09-23T20:46:28.835Z,101471.97
2022-09-23T20:48:56.624Z,101478.09
2022-09-23T20:51:24.688Z,101477.53
2022-09-23T20:53:52.877Z,101467.97
2022-09-23T20:56:21.447Z,101470.88
2022-09-23T20:58:48.700Z,101469.53
2022-09-23T21:01:15.740Z,101461.00
2022-09-23T21:03:44.807Z,101461.00
2022-09-23T21:06:14.470Z,101467.38
2022-09-23T21:08:44.777Z,101467.38
2022-09-23T21:11:16.863Z,101465.75
2022-09-23T21:13:47.936Z,101461.25
2022-09-23T21:16:17.462Z,101460.47
2022-09-23T21:18:47.669Z,101458.06
2022-09-23T21:21:14.724Z,101457.25
2022-09-23T21:23:43.386Z,101454.06
2022-09-23T21:26:14.117Z,101452.44
2022-09-23T21:28:45.420Z,101450.84
2022-09-23T21:31:26.164Z,101455.34
2022-09-23T21:34:01.895Z,101453.75
2022-09-23T21:36:30.956Z,101448.94
2022-09-23T21:38:58.118Z,101451.03
2022-09-23T21:41:25.227Z,101446.53
2022-09-23T21:43:51.703Z,101445.22
2022-09-23T21:46:20.427Z,101448.63
2022-09-23T21:48:53.591Z,101447.06
2022-09-23T21:51:26.035Z,101442.00
2022-09-23T21:53:57.724Z,101454.47
2022-09-23T21:56:26.479Z,101452.06
2022-09-23T21:58:54.190Z,101449.91
2022-09-23T22:01:23.552Z,101446.47
2022-09-23T22:03:52.882Z,101450.97
2022-09-23T22:06:21.865Z,101449.38
2022-09-23T22:08:54.572Z,101446.97
2022-09-23T22:11:41.574Z,101446.16
2022-09-23T22:14:11.170Z,101440.59
2022-09-23T22:16:39.011Z,101447.22
2022-09-23T22:19:06.996Z,101438.44
2022-09-23T22:21:36.596Z,101445.34
2022-09-23T22:24:04.691Z,101450.66
2022-09-23T22:26:33.150Z,101444.56
2022-09-23T22:29:18.619Z,101441.09
2022-09-23T22:32:03.463Z,101435.25
2022-09-23T22:34:49.036Z,101434.44
2022-09-23T22:37:18.992Z,101438.44
2022-09-23T22:39:45.961Z,101434.75
2022-09-23T22:42:13.085Z,101434.75
2022-09-23T22:44:39.884Z,101429.44
2022-09-23T22:47:06.518Z,101431.28
2022-09-23T22:49:33.103Z,101425.19
2022-09-23T22:51:59.892Z,101433.16
2022-09-23T22:54:33.654Z,101426.78
2022-09-23T22:57:03.155Z,101425.19
2022-09-23T22:59:30.036Z,101427.03
2022-09-23T23:01:57.192Z,101423.03
2022-09-23T23:04:23.804Z,101421.75
2022-09-23T23:06:51.194Z,101423.34
2022-09-23T23:09:18.855Z,101426.78
2022-09-23T23:11:45.800Z,101414.34
2022-09-23T23:14:13.842Z,101420.44
2022-09-23T23:16:40.411Z,101417.53
2022-09-23T23:19:09.811Z,101412.22
2022-09-23T23:21:37.157Z,101413.03
2022-09-23T23:24:05.079Z,101412.22
2022-09-23T23:26:35.285Z,101416.47
2022-09-23T23:29:01.802Z,101410.13
2022-09-23T23:31:29.259Z,101413.84
2022-09-23T23:33:55.824Z,101414.63
2022-09-23T23:36:23.533Z,101407.47
2022-09-23T23:38:53.857Z,101409.31
2022-09-23T23:41:22.791Z,101404.03
2022-09-23T23:43:55.240Z,101398.72
2022-09-23T23:46:25.363Z,101409.31
2022-09-23T23:48:53.033Z,101404.03
2022-09-23T23:51:20.109Z,101404.03
2022-09-23T23:53:47.565Z,101406.69
2022-09-23T23:56:19.159Z,101408.53
2022-09-23T23:58:48.110Z,101397.13
